Terminal Aerodrome Forecast
Issued by NWS

Home | Current Version | Previous Version | Text Only | Print | Product List | Glossary On
Versions: 1 2 3 4 5 6 7 8 9 10 11 12 13 14 15 16 17 18 19
000
FTUS44 KHGX 242334
TAFUTS
TAF
KUTS 242334Z 2500/2524 30011KT P6SM SKC
     FM250400 VRB04KT P6SM SKC
     FM251600 01007KT P6SM SKC
     FM252200 05006KT P6SM SKC=

USA.gov is the U.S. government's official web portal to all federal, state and local government web resources and services.